createdAt,value
2018-09-02T00:02:33.321Z,6.50
2018-09-02T00:05:12.530Z,12.70
2018-09-02T00:07:50.042Z,9.00
2018-09-02T00:10:28.352Z,9.63
2018-09-02T00:13:06.042Z,10.03
2018-09-02T00:15:45.262Z,13.97
2018-09-02T00:18:23.322Z,9.47
2018-09-02T00:21:02.812Z,10.47
2018-09-02T00:23:39.794Z,12.93
2018-09-02T00:26:21.190Z,12.23
2018-09-02T00:28:58.970Z,11.53
2018-09-02T00:31:40.262Z,13.33
2018-09-02T00:34:17.574Z,10.73
2018-09-02T00:36:56.541Z,10.63
2018-09-02T00:39:33.647Z,13.77
2018-09-02T00:42:11.273Z,12.50
2018-09-02T00:44:48.317Z,13.10
2018-09-02T00:47:27.222Z,15.47
2018-09-02T00:50:04.314Z,14.13
2018-09-02T00:52:41.914Z,11.13
2018-09-02T00:55:19.118Z,10.50
2018-09-02T00:57:57.166Z,9.90
2018-09-02T01:00:34.475Z,9.60
2018-09-02T01:03:11.813Z,9.30
2018-09-02T01:05:48.865Z,9.93
2018-09-02T01:08:26.479Z,10.40
2018-09-02T01:11:03.838Z,9.50
2018-09-02T01:13:45.389Z,8.83
2018-09-02T01:16:23.188Z,12.43
2018-09-02T01:19:03.266Z,12.13
2018-09-02T01:21:40.693Z,10.30
2018-09-02T01:24:18.985Z,10.47
2018-09-02T01:26:56.257Z,8.13
2018-09-02T01:29:38.255Z,10.70
2018-09-02T01:32:15.953Z,10.93
2018-09-02T01:34:54.295Z,8.87
2018-09-02T01:37:31.183Z,9.43
2018-09-02T01:40:12.941Z,8.13
2018-09-02T01:42:50.299Z,9.83
2018-09-02T01:45:31.355Z,9.90
2018-09-02T01:48:08.407Z,9.47
2018-09-02T01:50:48.877Z,12.43
2018-09-02T01:53:26.387Z,11.43
2018-09-02T01:56:05.731Z,10.20
2018-09-02T01:58:43.596Z,8.60
2018-09-02T02:01:21.023Z,9.83
2018-09-02T02:03:58.238Z,14.20
2018-09-02T02:06:39.946Z,12.03
2018-09-02T02:09:17.148Z,9.77
2018-09-02T02:11:56.151Z,13.67
2018-09-02T02:14:33.319Z,10.73
2018-09-02T02:17:13.752Z,9.10
2018-09-02T02:19:53.788Z,9.87
2018-09-02T02:22:35.265Z,13.97
2018-09-02T02:25:12.427Z,11.17
2018-09-02T02:27:55.363Z,11.27
2018-09-02T02:30:32.660Z,10.50
2018-09-02T02:33:11.850Z,12.13
2018-09-02T02:35:49.314Z,10.73
2018-09-02T02:38:27.839Z,11.50
2018-09-02T02:41:04.734Z,12.30
2018-09-02T02:43:49.502Z,9.07
2018-09-02T02:46:26.679Z,10.27
2018-09-02T02:49:04.541Z,9.53
2018-09-02T02:51:41.295Z,11.23
2018-09-02T02:54:19.625Z,10.17
2018-09-02T02:56:56.542Z,10.67
2018-09-02T02:59:38.862Z,12.10
2018-09-02T03:02:16.197Z,11.97
2018-09-02T03:05:00.293Z,10.07
2018-09-02T03:07:37.640Z,13.50
2018-09-02T03:10:20.122Z,9.43
2018-09-02T03:12:57.263Z,9.93
2018-09-02T03:15:40.606Z,11.80
2018-09-02T03:18:17.621Z,11.07
2018-09-02T03:20:58.385Z,12.73
2018-09-02T03:23:35.576Z,10.80
2018-09-02T03:26:18.339Z,10.50
2018-09-02T03:28:55.773Z,8.90
2018-09-02T03:31:38.002Z,9.80
2018-09-02T03:34:15.444Z,10.57
2018-09-02T03:36:53.172Z,11.03
2018-09-02T03:39:29.980Z,10.77
2018-09-02T03:42:14.267Z,11.43
2018-09-02T03:44:51.484Z,12.70
2018-09-02T03:47:29.105Z,10.00
2018-09-02T03:50:06.419Z,12.97
2018-09-02T03:52:47.106Z,8.50
2018-09-02T03:55:24.398Z,13.70
2018-09-02T03:58:05.409Z,8.73
2018-09-02T04:00:42.516Z,9.10
2018-09-02T04:03:22.806Z,9.73
2018-09-02T04:05:59.954Z,9.10
2018-09-02T04:08:38.787Z,9.40
2018-09-02T04:11:17.069Z,8.23
2018-09-02T04:13:54.166Z,8.97
2018-09-02T04:16:31.240Z,8.83
2018-09-02T04:19:11.287Z,9.27
2018-09-02T04:21:48.589Z,7.63
2018-09-02T04:24:28.324Z,10.53
2018-09-02T04:27:05.791Z,6.77
2018-09-02T04:29:45.058Z,9.23
2018-09-02T04:32:22.188Z,8.50
2018-09-02T04:34:59.846Z,8.93
2018-09-02T04:37:36.948Z,7.20
2018-09-02T04:40:15.032Z,6.07
2018-09-02T04:42:51.934Z,9.57
2018-09-02T04:45:30.803Z,8.20
2018-09-02T04:48:07.836Z,9.90
2018-09-02T04:50:46.242Z,9.70
2018-09-02T04:53:23.370Z,10.17
2018-09-02T04:56:06.824Z,6.63
2018-09-02T04:58:45.576Z,7.87
2018-09-02T05:01:28.462Z,6.87
2018-09-02T05:04:06.873Z,8.07
2018-09-02T05:06:47.542Z,8.47
2018-09-02T05:09:24.566Z,7.87
2018-09-02T05:12:02.016Z,6.60
2018-09-02T05:14:39.753Z,7.10
2018-09-02T05:17:18.222Z,5.73
2018-09-02T05:19:55.470Z,6.10
2018-09-02T05:22:36.128Z,8.00
2018-09-02T05:25:13.171Z,9.50
2018-09-02T05:27:56.096Z,7.80
2018-09-02T05:30:33.287Z,6.43
2018-09-02T05:33:13.140Z,10.17
2018-09-02T05:36:01.476Z,5.50
2018-09-02T05:38:40.974Z,7.87
2018-09-02T05:41:23.938Z,7.07
2018-09-02T05:44:12.840Z,8.00
2018-09-02T05:46:55.387Z,8.37
2018-09-02T05:49:40.750Z,7.77
2018-09-02T05:52:17.996Z,10.43
2018-09-02T05:55:01.974Z,6.53
2018-09-02T05:57:39.819Z,9.13
2018-09-02T06:00:22.532Z,6.30
2018-09-02T06:02:59.936Z,9.67
2018-09-02T06:05:43.179Z,9.27
2018-09-02T06:08:22.319Z,10.93
2018-09-02T06:11:05.584Z,6.50
2018-09-02T06:13:43.116Z,7.33
2018-09-02T06:16:30.124Z,9.60
2018-09-02T06:19:09.815Z,7.73
2018-09-02T06:21:53.478Z,8.73
2018-09-02T06:24:36.601Z,6.80
2018-09-02T06:27:17.630Z,9.77
2018-09-02T06:30:02.350Z,6.93
2018-09-02T06:32:52.089Z,7.87
2018-09-02T06:35:53.805Z,7.63
2018-09-02T06:38:40.845Z,6.83
2018-09-02T06:41:21.795Z,9.97
2018-09-02T06:44:03.894Z,12.13
2018-09-02T06:46:48.573Z,8.77
2018-09-02T06:49:34.346Z,7.17
2018-09-02T06:52:12.543Z,8.10
2018-09-02T06:55:02.134Z,8.67
2018-09-02T06:57:47.591Z,6.63
2018-09-02T07:00:31.888Z,10.17
2018-09-02T07:03:11.325Z,9.07
2018-09-02T07:06:03.218Z,7.67
2018-09-02T07:08:54.639Z,9.00
2018-09-02T07:11:47.526Z,9.97
2018-09-02T07:14:30.386Z,7.27
2018-09-02T07:17:15.762Z,6.90
2018-09-02T07:19:54.218Z,7.37
2018-09-02T07:22:43.387Z,7.20
2018-09-02T07:25:24.473Z,6.80
2018-09-02T07:28:08.693Z,7.17
2018-09-02T07:33:39.514Z,7.27
2018-09-02T07:36:27.412Z,6.77
2018-09-02T07:39:14.901Z,5.33
2018-09-02T07:41:53.760Z,5.73
2018-09-02T07:44:35.215Z,4.83
2018-09-02T07:47:13.183Z,4.73
2018-09-02T07:49:58.546Z,5.83
2018-09-02T07:52:37.646Z,4.27
2018-09-02T07:55:21.541Z,5.20
2018-09-02T07:58:00.212Z,4.40
2018-09-02T08:00:45.000Z,4.00
2018-09-02T08:03:27.342Z,4.27
2018-09-02T08:06:17.006Z,4.50
2018-09-02T08:08:57.465Z,3.93
2018-09-02T08:11:40.489Z,4.17
2018-09-02T08:14:18.491Z,5.00
2018-09-02T08:17:00.649Z,4.00
2018-09-02T08:19:39.508Z,3.80
2018-09-02T08:22:23.543Z,3.77
2018-09-02T08:25:03.270Z,4.63
2018-09-02T08:27:45.989Z,4.40
2018-09-02T08:30:26.112Z,5.00
2018-09-02T08:33:06.353Z,4.40
2018-09-02T08:35:45.160Z,4.13
2018-09-02T08:38:23.193Z,4.27
2018-09-02T08:41:00.601Z,3.80
2018-09-02T08:43:43.848Z,3.97
2018-09-02T08:46:20.882Z,3.70
2018-09-02T08:49:02.835Z,3.73
2018-09-02T08:51:40.118Z,3.50
2018-09-02T08:54:23.805Z,3.60
2018-09-02T08:57:02.735Z,2.90
2018-09-02T08:59:44.136Z,3.53
2018-09-02T09:02:23.194Z,3.17
2018-09-02T09:05:04.300Z,3.30
2018-09-02T09:07:41.933Z,3.33
2018-09-02T09:10:30.458Z,3.40
2018-09-02T09:13:08.646Z,3.10
2018-09-02T09:15:50.429Z,2.80
2018-09-02T09:18:30.837Z,2.53
2018-09-02T09:21:13.135Z,2.87
2018-09-02T09:23:50.376Z,2.60
2018-09-02T09:26:32.552Z,2.80
2018-09-02T09:29:10.474Z,2.43
2018-09-02T09:31:53.067Z,2.60
2018-09-02T09:34:30.415Z,2.57
2018-09-02T09:37:11.696Z,3.00
2018-09-02T09:39:49.676Z,2.27
2018-09-02T09:42:30.200Z,2.33
2018-09-02T09:45:07.382Z,2.50
2018-09-02T09:47:56.657Z,2.60
2018-09-02T09:50:35.448Z,2.50
2018-09-02T09:55:59.767Z,2.53
2018-09-02T09:58:42.277Z,2.63
2018-09-02T10:01:22.683Z,2.90
2018-09-02T10:04:06.120Z,2.67
2018-09-02T10:06:46.581Z,3.03
2018-09-02T10:09:28.955Z,3.20
2018-09-02T10:12:06.361Z,3.90
2018-09-02T10:14:47.278Z,3.80
2018-09-02T10:17:27.131Z,4.07
2018-09-02T10:20:08.657Z,3.93
2018-09-02T10:22:49.006Z,5.10
2018-09-02T10:25:31.133Z,6.33
2018-09-02T10:28:13.218Z,5.23
2018-09-02T10:30:55.002Z,4.73
2018-09-02T10:33:31.873Z,4.63
2018-09-02T10:36:15.704Z,6.77
2018-09-02T10:38:52.898Z,4.80
2018-09-02T10:41:35.547Z,5.03
2018-09-02T10:44:14.698Z,4.90
2018-09-02T10:46:59.037Z,5.50
2018-09-02T10:49:36.674Z,5.97
2018-09-02T10:52:17.329Z,6.20
2018-09-02T10:54:57.239Z,6.50
2018-09-02T10:57:39.885Z,7.27
2018-09-02T11:00:17.005Z,6.20
2018-09-02T11:03:00.193Z,5.70
2018-09-02T11:05:37.270Z,6.33
2018-09-02T11:08:20.302Z,6.03
2018-09-02T11:10:57.921Z,7.23
2018-09-02T11:13:40.720Z,6.23
2018-09-02T11:16:17.857Z,6.70
2018-09-02T11:18:59.100Z,7.73
2018-09-02T11:21:35.952Z,7.90
2018-09-02T11:24:19.109Z,7.20
2018-09-02T11:26:59.533Z,7.83
2018-09-02T11:29:45.484Z,9.57
2018-09-02T11:32:22.715Z,8.50
2018-09-02T11:35:04.394Z,9.33
2018-09-02T11:37:41.982Z,8.80
2018-09-02T11:40:25.297Z,14.43
2018-09-02T11:43:03.227Z,10.17
2018-09-02T11:45:46.112Z,9.53
2018-09-02T11:48:23.383Z,11.87
2018-09-02T11:51:09.779Z,10.70
2018-09-02T11:53:47.459Z,13.47
2018-09-02T11:56:29.871Z,10.97
2018-09-02T11:59:08.614Z,11.57
2018-09-02T12:01:50.195Z,12.40
2018-09-02T12:04:29.525Z,12.03
2018-09-02T12:07:11.453Z,16.17
2018-09-02T12:09:48.566Z,14.77
2018-09-02T12:12:29.133Z,14.63
2018-09-02T12:15:06.673Z,13.87
2018-09-02T12:17:48.929Z,16.07
2018-09-02T12:20:26.133Z,15.57
2018-09-02T12:23:08.537Z,15.70
2018-09-02T12:25:46.283Z,18.17
2018-09-02T12:28:29.556Z,16.23
2018-09-02T12:31:07.733Z,16.03
2018-09-02T12:33:49.971Z,17.50
2018-09-02T12:36:27.047Z,18.00
2018-09-02T12:39:10.408Z,15.80
2018-09-02T12:41:47.328Z,15.43
2018-09-02T12:44:31.289Z,15.17
2018-09-02T12:47:08.393Z,13.13
2018-09-02T12:49:55.288Z,15.33
2018-09-02T12:52:32.416Z,15.77
2018-09-02T12:55:15.775Z,17.13
2018-09-02T12:57:53.479Z,17.27
2018-09-02T13:00:36.179Z,17.67
2018-09-02T13:03:13.295Z,14.63
2018-09-02T13:05:53.286Z,15.70
2018-09-02T13:08:30.568Z,16.53
2018-09-02T13:11:14.537Z,15.87
2018-09-02T13:13:53.313Z,17.13
2018-09-02T13:16:35.924Z,16.00
2018-09-02T13:19:12.996Z,18.13
2018-09-02T13:21:55.205Z,16.97
2018-09-02T13:24:32.419Z,18.93
2018-09-02T13:27:12.893Z,19.63
2018-09-02T13:29:53.028Z,16.93
2018-09-02T13:32:35.759Z,18.63
2018-09-02T13:35:15.708Z,20.23
2018-09-02T13:37:56.859Z,19.93
2018-09-02T13:40:35.328Z,20.53
2018-09-02T13:43:19.584Z,21.17
2018-09-02T13:45:57.672Z,18.43
2018-09-02T13:48:38.983Z,18.17
2018-09-02T13:51:16.353Z,19.60
2018-09-02T13:54:00.236Z,20.03
2018-09-02T13:56:37.650Z,20.10
2018-09-02T13:59:18.598Z,19.83
2018-09-02T14:01:59.160Z,21.70
2018-09-02T14:04:42.510Z,18.23
2018-09-02T14:07:20.650Z,20.57
2018-09-02T14:10:00.643Z,20.03
2018-09-02T14:12:40.007Z,20.53
2018-09-02T14:15:23.007Z,24.13
2018-09-02T14:18:02.201Z,19.27
2018-09-02T14:20:42.732Z,21.97
2018-09-02T14:23:19.913Z,20.70
2018-09-02T14:26:06.580Z,20.47
2018-09-02T14:28:44.126Z,22.60
2018-09-02T14:31:24.465Z,22.53
2018-09-02T14:34:02.239Z,21.27
2018-09-02T14:36:45.492Z,20.13
2018-09-02T14:39:23.298Z,24.33
2018-09-02T14:42:05.253Z,21.90
2018-09-02T14:44:42.274Z,26.30
2018-09-02T14:47:24.580Z,22.80
2018-09-02T14:50:04.165Z,23.03
2018-09-02T14:52:43.243Z,22.00
2018-09-02T14:55:27.726Z,23.47
2018-09-02T14:58:06.080Z,21.87
2018-09-02T15:00:45.499Z,21.83
2018-09-02T15:03:23.618Z,22.47
2018-09-02T15:06:05.063Z,25.67
2018-09-02T15:08:47.826Z,25.00
2018-09-02T15:11:26.456Z,23.87
2018-09-02T15:14:12.579Z,26.47
2018-09-02T15:16:49.887Z,24.63
2018-09-02T15:19:32.098Z,25.70
2018-09-02T15:22:10.875Z,23.67
2018-09-02T15:24:49.219Z,25.80
2018-09-02T15:30:21.053Z,27.13
2018-09-02T15:33:02.355Z,29.20
2018-09-02T15:35:43.455Z,25.80
2018-09-02T15:38:23.960Z,27.67
2018-09-02T15:41:07.559Z,26.70
2018-09-02T15:43:46.689Z,26.30
2018-09-02T15:49:34.001Z,28.57
2018-09-02T15:52:12.178Z,27.23
2018-09-02T15:54:54.672Z,26.17
2018-09-02T16:00:33.076Z,26.07
2018-09-02T16:06:00.409Z,27.40
2018-09-02T16:08:40.252Z,28.30
2018-09-02T16:11:21.463Z,29.63
2018-09-02T16:16:54.750Z,27.37
2018-09-02T16:19:40.009Z,27.80
2018-09-02T16:22:21.824Z,28.80
2018-09-02T16:25:01.600Z,28.10
2018-09-02T16:27:43.278Z,28.43
2018-09-02T16:30:23.858Z,29.50
2018-09-02T16:33:01.415Z,28.53
2018-09-02T16:35:39.100Z,30.57
2018-09-02T16:38:18.398Z,27.73
2018-09-02T16:40:57.566Z,27.20
2018-09-02T16:43:38.073Z,29.83
2018-09-02T16:46:17.534Z,28.37
2018-09-02T16:48:59.017Z,31.03
2018-09-02T16:51:36.806Z,31.50
2018-09-02T16:54:16.400Z,29.53
2018-09-02T16:56:59.001Z,29.83
2018-09-02T16:59:38.793Z,30.67
2018-09-02T17:02:23.252Z,28.00
2018-09-02T17:11:03.347Z,31.37
2018-09-02T17:13:41.624Z,31.60
2018-09-02T17:16:19.958Z,34.33
2018-09-02T17:19:20.289Z,32.40
2018-09-02T17:21:59.299Z,31.17
2018-09-02T17:40:21.521Z,32.33
2018-09-02T17:43:03.261Z,36.53
2018-09-02T17:48:27.030Z,35.80
2018-09-02T17:51:03.413Z,40.10
2018-09-02T17:53:46.398Z,38.90
2018-09-02T17:56:22.944Z,39.40
2018-09-02T17:59:07.600Z,41.33
2018-09-02T18:01:44.316Z,38.13
2018-09-02T18:04:22.416Z,40.53
2018-09-02T18:07:11.571Z,38.27
2018-09-02T18:09:47.136Z,42.17
2018-09-02T18:12:25.325Z,38.60
2018-09-02T18:15:09.195Z,43.07
2018-09-02T18:17:45.647Z,42.00
2018-09-02T18:20:25.238Z,44.40
2018-09-02T18:23:06.354Z,38.33
2018-09-02T18:25:46.157Z,42.93
2018-09-02T18:28:28.614Z,41.70
2018-09-02T18:31:06.812Z,41.67
2018-09-02T18:33:50.859Z,42.17
2018-09-02T18:36:29.116Z,40.80
2018-09-02T18:39:15.748Z,45.90
2018-09-02T18:41:51.937Z,43.43
2018-09-02T18:44:30.861Z,47.60
2018-09-02T18:47:12.958Z,42.87
2018-09-02T18:49:50.574Z,42.47
2018-09-02T18:52:30.521Z,42.70
2018-09-02T18:58:09.048Z,39.30
2018-09-02T19:00:48.799Z,42.37
2018-09-02T19:03:27.531Z,52.67
2018-09-02T19:06:04.212Z,47.17
2018-09-02T19:22:31.168Z,49.03
2018-09-02T19:25:10.534Z,48.57
2018-09-02T19:27:51.287Z,43.93
2018-09-02T19:30:29.446Z,50.57
2018-09-02T19:33:17.371Z,46.10
2018-09-02T19:35:54.568Z,45.40
2018-09-02T19:38:33.202Z,48.27
2018-09-02T19:41:10.909Z,43.43
2018-09-02T19:43:48.487Z,43.40
2018-09-02T19:46:26.393Z,47.57
2018-09-02T19:49:04.849Z,45.13
2018-09-02T19:51:42.348Z,45.87
2018-09-02T19:54:23.202Z,44.63
2018-09-02T19:57:02.787Z,45.97
2018-09-02T19:59:44.676Z,47.13
2018-09-02T20:02:21.668Z,51.17
2018-09-02T20:05:02.701Z,42.77
2018-09-02T20:07:40.593Z,46.37
2018-09-02T20:10:25.173Z,48.80
2018-09-02T20:13:02.326Z,42.90
2018-09-02T20:15:40.923Z,47.23
2018-09-02T20:18:18.787Z,46.03
2018-09-02T20:21:01.661Z,52.60
2018-09-02T20:23:41.518Z,44.67
2018-09-02T20:26:20.564Z,49.47
2018-09-02T20:28:58.245Z,44.43
2018-09-02T20:31:40.848Z,47.33
2018-09-02T20:34:18.094Z,47.60
2018-09-02T20:36:55.676Z,44.13
2018-09-02T20:39:32.758Z,46.87
2018-09-02T20:42:10.085Z,45.37
2018-09-02T20:44:48.009Z,46.33
2018-09-02T20:47:25.831Z,41.53
2018-09-02T20:50:04.285Z,41.07
2018-09-02T20:52:41.635Z,42.10
2018-09-02T20:55:18.728Z,43.83
2018-09-02T20:57:58.130Z,43.53
2018-09-02T21:03:18.521Z,45.27
2018-09-02T21:05:55.796Z,43.40
2018-09-02T21:08:33.796Z,46.67
2018-09-02T21:11:11.586Z,40.13
2018-09-02T21:13:50.700Z,45.87
2018-09-02T21:16:28.239Z,40.80
2018-09-02T21:19:08.931Z,44.43
2018-09-02T21:21:48.178Z,46.50
2018-09-02T21:24:26.301Z,47.97
2018-09-02T21:27:03.608Z,42.30
2018-09-02T21:29:40.885Z,44.60
2018-09-02T21:32:18.090Z,45.47
2018-09-02T21:34:56.363Z,44.77
2018-09-02T21:37:33.459Z,43.67
2018-09-02T21:40:13.926Z,46.67
2018-09-02T21:42:51.631Z,44.60
2018-09-02T21:45:29.065Z,45.63
2018-09-02T21:48:06.432Z,45.70
2018-09-02T21:50:45.305Z,43.87
2018-09-02T21:53:22.414Z,45.07
2018-09-02T21:55:59.782Z,43.30
2018-09-02T21:58:36.815Z,45.47
2018-09-02T22:01:16.765Z,46.67
2018-09-02T22:03:53.886Z,49.60
2018-09-02T22:06:35.120Z,49.13
2018-09-02T22:09:17.411Z,50.50
2018-09-02T22:11:57.983Z,48.63
2018-09-02T22:14:34.858Z,42.97
2018-09-02T22:17:14.938Z,45.57
2018-09-02T22:19:52.148Z,52.37
2018-09-02T22:22:29.895Z,49.27
2018-09-02T22:25:08.481Z,46.83
2018-09-02T22:27:46.439Z,44.97
2018-09-02T22:30:23.537Z,48.13
2018-09-02T22:33:00.882Z,51.13
2018-09-02T22:35:37.908Z,46.07
2018-09-02T22:38:17.708Z,47.23
2018-09-02T22:40:55.031Z,49.13
2018-09-02T22:43:34.533Z,45.60
2018-09-02T22:46:11.633Z,49.70
2018-09-02T22:48:48.827Z,47.60
2018-09-02T22:51:25.848Z,47.40
2018-09-02T22:54:02.780Z,47.87
2018-09-02T22:56:42.211Z,51.60
2018-09-02T22:59:19.461Z,43.73
2018-09-02T23:02:08.566Z,43.03
2018-09-02T23:04:45.618Z,46.07
2018-09-02T23:07:22.750Z,47.30
2018-09-02T23:10:02.649Z,49.37
2018-09-02T23:12:44.308Z,49.77
2018-09-02T23:15:21.158Z,47.37
2018-09-02T23:18:03.870Z,47.10
2018-09-02T23:20:41.614Z,46.23
2018-09-02T23:23:20.045Z,49.90
2018-09-02T23:25:57.544Z,48.97
2018-09-02T23:28:42.538Z,48.43
2018-09-02T23:31:19.915Z,43.70
2018-09-02T23:34:10.671Z,48.10
2018-09-02T23:36:47.544Z,43.20
2018-09-02T23:39:26.961Z,49.63
2018-09-02T23:42:04.252Z,46.07
2018-09-02T23:44:47.110Z,50.70
2018-09-02T23:47:23.964Z,45.40
2018-09-02T23:50:03.330Z,47.43
2018-09-02T23:52:40.417Z,49.13
2018-09-02T23:55:23.343Z,49.50
2018-09-02T23:58:00.723Z,50.00
